sensor_id;sensor_type;location;lat;lon;timestamp;temperature;humidity
7704;DHT22;3894;49.700;10.770;2023-09-12T00:00:54;18.50;99.90
7704;DHT22;3894;49.700;10.770;2023-09-12T00:03:22;18.50;99.90
7704;DHT22;3894;49.700;10.770;2023-09-12T00:05:55;18.50;99.90
7704;DHT22;3894;49.700;10.770;2023-09-12T00:08:22;18.50;99.90
7704;DHT22;3894;49.700;10.770;2023-09-12T00:11:02;18.50;99.90
7704;DHT22;3894;49.700;10.770;2023-09-12T00:13:28;18.40;99.90
7704;DHT22;3894;49.700;10.770;2023-09-12T00:15:54;18.40;99.90
7704;DHT22;3894;49.700;10.770;2023-09-12T00:18:20;18.40;99.90
7704;DHT22;3894;49.700;10.770;2023-09-12T00:20:46;18.40;99.90
7704;DHT22;3894;49.700;10.770;2023-09-12T00:23:11;18.30;99.90
7704;DHT22;3894;49.700;10.770;2023-09-12T00:25:37;18.30;99.90
7704;DHT22;3894;49.700;10.770;2023-09-12T00:28:03;18.30;99.90
7704;DHT22;3894;49.700;10.770;2023-09-12T00:30:29;18.30;99.90
7704;DHT22;3894;49.700;10.770;2023-09-12T00:32:55;18.20;99.90
7704;DHT22;3894;49.700;10.770;2023-09-12T00:35:20;18.20;99.90
7704;DHT22;3894;49.700;10.770;2023-09-12T00:37:46;18.20;99.90
7704;DHT22;3894;49.700;10.770;2023-09-12T00:40:11;18.10;99.90
7704;DHT22;3894;49.700;10.770;2023-09-12T00:42:37;18.10;99.90
7704;DHT22;3894;49.700;10.770;2023-09-12T00:45:03;18.00;99.90
7704;DHT22;3894;49.700;10.770;2023-09-12T00:47:29;17.80;99.90
7704;DHT22;3894;49.700;10.770;2023-09-12T00:49:56;17.80;99.90
7704;DHT22;3894;49.700;10.770;2023-09-12T00:52:24;17.90;99.90
7704;DHT22;3894;49.700;10.770;2023-09-12T00:54:50;17.90;99.90
7704;DHT22;3894;49.700;10.770;2023-09-12T00:57:16;17.90;99.90
7704;DHT22;3894;49.700;10.770;2023-09-12T00:59:42;17.90;99.90
7704;DHT22;3894;49.700;10.770;2023-09-12T01:02:08;17.90;99.90
7704;DHT22;3894;49.700;10.770;2023-09-12T01:04:35;17.90;99.90
7704;DHT22;3894;49.700;10.770;2023-09-12T01:07:03;17.80;99.90
7704;DHT22;3894;49.700;10.770;2023-09-12T01:09:30;17.80;99.90
7704;DHT22;3894;49.700;10.770;2023-09-12T01:11:56;17.80;99.90
7704;DHT22;3894;49.700;10.770;2023-09-12T01:14:22;17.80;99.90
7704;DHT22;3894;49.700;10.770;2023-09-12T01:16:47;17.80;99.90
7704;DHT22;3894;49.700;10.770;2023-09-12T01:19:14;17.70;99.90
7704;DHT22;3894;49.700;10.770;2023-09-12T01:27:27;17.70;99.90
7704;DHT22;3894;49.700;10.770;2023-09-12T01:30:02;17.70;99.90
7704;DHT22;3894;49.700;10.770;2023-09-12T01:32:30;17.70;99.90
7704;DHT22;3894;49.700;10.770;2023-09-12T01:34:56;17.60;99.90
7704;DHT22;3894;49.700;10.770;2023-09-12T01:37:22;17.50;99.90
7704;DHT22;3894;49.700;10.770;2023-09-12T01:39:47;17.50;99.90
7704;DHT22;3894;49.700;10.770;2023-09-12T01:42:18;17.40;99.90
7704;DHT22;3894;49.700;10.770;2023-09-12T01:44:47;17.40;99.90
7704;DHT22;3894;49.700;10.770;2023-09-12T01:47:15;17.30;99.90
7704;DHT22;3894;49.700;10.770;2023-09-12T01:49:44;17.30;99.90
7704;DHT22;3894;49.700;10.770;2023-09-12T01:52:11;17.30;99.90
7704;DHT22;3894;49.700;10.770;2023-09-12T01:54:37;17.30;99.90
7704;DHT22;3894;49.700;10.770;2023-09-12T01:57:03;17.30;99.90
7704;DHT22;3894;49.700;10.770;2023-09-12T01:59:30;17.20;99.90
7704;DHT22;3894;49.700;10.770;2023-09-12T02:01:55;17.20;99.90
7704;DHT22;3894;49.700;10.770;2023-09-12T02:04:21;17.30;99.90
7704;DHT22;3894;49.700;10.770;2023-09-12T02:06:46;17.30;99.90
7704;DHT22;3894;49.700;10.770;2023-09-12T02:09:12;17.30;99.90
7704;DHT22;3894;49.700;10.770;2023-09-12T02:11:37;17.30;99.90
7704;DHT22;3894;49.700;10.770;2023-09-12T02:14:05;17.30;99.90
7704;DHT22;3894;49.700;10.770;2023-09-12T02:16:31;17.30;99.90
7704;DHT22;3894;49.700;10.770;2023-09-12T02:18:57;17.30;99.90
7704;DHT22;3894;49.700;10.770;2023-09-12T02:21:23;17.30;99.90
7704;DHT22;3894;49.700;10.770;2023-09-12T02:23:48;17.20;99.90
7704;DHT22;3894;49.700;10.770;2023-09-12T02:26:14;17.10;99.90
7704;DHT22;3894;49.700;10.770;2023-09-12T02:28:39;17.00;99.90
7704;DHT22;3894;49.700;10.770;2023-09-12T02:31:11;17.00;99.90
7704;DHT22;3894;49.700;10.770;2023-09-12T02:33:40;17.10;99.90
7704;DHT22;3894;49.700;10.770;2023-09-12T02:36:06;17.10;99.90
7704;DHT22;3894;49.700;10.770;2023-09-12T02:38:32;17.10;99.90
7704;DHT22;3894;49.700;10.770;2023-09-12T02:40:58;17.00;99.90
7704;DHT22;3894;49.700;10.770;2023-09-12T02:43:24;17.00;99.90
7704;DHT22;3894;49.700;10.770;2023-09-12T02:45:49;17.00;99.90
7704;DHT22;3894;49.700;10.770;2023-09-12T02:48:15;17.00;99.90
7704;DHT22;3894;49.700;10.770;2023-09-12T02:50:41;17.00;99.90
7704;DHT22;3894;49.700;10.770;2023-09-12T02:53:06;17.00;99.90
7704;DHT22;3894;49.700;10.770;2023-09-12T02:55:32;17.00;99.90
7704;DHT22;3894;49.700;10.770;2023-09-12T02:57:58;17.00;99.90
7704;DHT22;3894;49.700;10.770;2023-09-12T03:00:23;17.00;99.90
7704;DHT22;3894;49.700;10.770;2023-09-12T03:02:49;17.00;99.90
7704;DHT22;3894;49.700;10.770;2023-09-12T03:05:15;17.00;99.90
7704;DHT22;3894;49.700;10.770;2023-09-12T03:07:40;16.90;99.90
7704;DHT22;3894;49.700;10.770;2023-09-12T03:10:06;16.90;99.90
7704;DHT22;3894;49.700;10.770;2023-09-12T03:12:32;16.80;99.90
7704;DHT22;3894;49.700;10.770;2023-09-12T03:14:57;16.70;99.90
7704;DHT22;3894;49.700;10.770;2023-09-12T03:17:23;16.60;99.90
7704;DHT22;3894;49.700;10.770;2023-09-12T03:19:48;16.50;99.90
7704;DHT22;3894;49.700;10.770;2023-09-12T03:22:14;16.50;99.90
7704;DHT22;3894;49.700;10.770;2023-09-12T03:24:40;16.50;99.90
7704;DHT22;3894;49.700;10.770;2023-09-12T03:27:06;16.50;99.90
7704;DHT22;3894;49.700;10.770;2023-09-12T03:29:33;16.50;99.90
7704;DHT22;3894;49.700;10.770;2023-09-12T03:31:59;16.30;99.90
7704;DHT22;3894;49.700;10.770;2023-09-12T03:34:24;16.10;99.90
7704;DHT22;3894;49.700;10.770;2023-09-12T03:36:50;15.90;99.90
7704;DHT22;3894;49.700;10.770;2023-09-12T03:39:15;15.90;99.90
7704;DHT22;3894;49.700;10.770;2023-09-12T03:41:41;16.00;99.90
7704;DHT22;3894;49.700;10.770;2023-09-12T03:44:07;16.00;99.90
7704;DHT22;3894;49.700;10.770;2023-09-12T03:46:33;16.10;99.90
7704;DHT22;3894;49.700;10.770;2023-09-12T03:48:58;16.10;99.90
7704;DHT22;3894;49.700;10.770;2023-09-12T03:51:24;16.20;99.90
7704;DHT22;3894;49.700;10.770;2023-09-12T03:53:49;16.20;99.90
7704;DHT22;3894;49.700;10.770;2023-09-12T03:56:16;16.30;99.90
7704;DHT22;3894;49.700;10.770;2023-09-12T03:58:42;16.30;99.90
7704;DHT22;3894;49.700;10.770;2023-09-12T04:01:07;16.30;99.90
7704;DHT22;3894;49.700;10.770;2023-09-12T04:03:33;16.30;99.90
7704;DHT22;3894;49.700;10.770;2023-09-12T04:05:58;16.30;99.90
7704;DHT22;3894;49.700;10.770;2023-09-12T04:08:24;16.20;99.90
7704;DHT22;3894;49.700;10.770;2023-09-12T04:10:50;16.00;99.90
7704;DHT22;3894;49.700;10.770;2023-09-12T04:13:15;15.90;99.90
7704;DHT22;3894;49.700;10.770;2023-09-12T04:15:41;15.90;99.90
7704;DHT22;3894;49.700;10.770;2023-09-12T04:18:06;15.90;99.90
7704;DHT22;3894;49.700;10.770;2023-09-12T04:20:32;15.90;99.90
7704;DHT22;3894;49.700;10.770;2023-09-12T04:23:01;15.90;99.90
7704;DHT22;3894;49.700;10.770;2023-09-12T04:25:26;15.90;99.90
7704;DHT22;3894;49.700;10.770;2023-09-12T04:27:52;15.80;99.90
7704;DHT22;3894;49.700;10.770;2023-09-12T04:30:18;15.80;99.90
7704;DHT22;3894;49.700;10.770;2023-09-12T04:32:44;15.80;99.90
7704;DHT22;3894;49.700;10.770;2023-09-12T04:35:09;15.80;99.90
7704;DHT22;3894;49.700;10.770;2023-09-12T04:37:35;15.90;99.90
7704;DHT22;3894;49.700;10.770;2023-09-12T04:40:01;15.80;99.90
7704;DHT22;3894;49.700;10.770;2023-09-12T04:42:26;15.80;99.90
7704;DHT22;3894;49.700;10.770;2023-09-12T04:44:52;15.90;99.90
7704;DHT22;3894;49.700;10.770;2023-09-12T04:47:18;15.90;99.90
7704;DHT22;3894;49.700;10.770;2023-09-12T04:49:44;15.90;99.90
7704;DHT22;3894;49.700;10.770;2023-09-12T04:52:09;15.90;99.90
7704;DHT22;3894;49.700;10.770;2023-09-12T04:54:35;16.00;99.90
7704;DHT22;3894;49.700;10.770;2023-09-12T04:57:01;16.00;99.90
7704;DHT22;3894;49.700;10.770;2023-09-12T04:59:26;16.00;99.90
7704;DHT22;3894;49.700;10.770;2023-09-12T05:01:52;16.00;99.90
7704;DHT22;3894;49.700;10.770;2023-09-12T05:04:17;16.00;99.90
7704;DHT22;3894;49.700;10.770;2023-09-12T05:06:43;16.10;99.90
7704;DHT22;3894;49.700;10.770;2023-09-12T05:09:08;16.00;99.90
7704;DHT22;3894;49.700;10.770;2023-09-12T05:11:36;16.10;99.90
7704;DHT22;3894;49.700;10.770;2023-09-12T05:14:04;16.10;99.90
7704;DHT22;3894;49.700;10.770;2023-09-12T05:16:30;16.10;99.90
7704;DHT22;3894;49.700;10.770;2023-09-12T05:18:55;16.20;99.90
7704;DHT22;3894;49.700;10.770;2023-09-12T05:21:21;16.20;99.90
7704;DHT22;3894;49.700;10.770;2023-09-12T05:23:46;16.30;99.90
7704;DHT22;3894;49.700;10.770;2023-09-12T05:26:12;16.40;99.90
7704;DHT22;3894;49.700;10.770;2023-09-12T05:28:39;16.40;99.90
7704;DHT22;3894;49.700;10.770;2023-09-12T05:31:04;16.40;99.90
7704;DHT22;3894;49.700;10.770;2023-09-12T05:33:30;16.40;99.90
7704;DHT22;3894;49.700;10.770;2023-09-12T05:35:55;16.40;99.90
7704;DHT22;3894;49.700;10.770;2023-09-12T05:38:21;16.40;99.90
7704;DHT22;3894;49.700;10.770;2023-09-12T05:40:46;16.40;99.90
7704;DHT22;3894;49.700;10.770;2023-09-12T05:43:15;16.40;99.90
7704;DHT22;3894;49.700;10.770;2023-09-12T05:45:41;16.30;99.90
7704;DHT22;3894;49.700;10.770;2023-09-12T05:48:07;16.30;99.90
7704;DHT22;3894;49.700;10.770;2023-09-12T05:50:36;16.30;99.90
7704;DHT22;3894;49.700;10.770;2023-09-12T05:53:01;16.30;99.90
7704;DHT22;3894;49.700;10.770;2023-09-12T05:55:28;16.30;99.90
7704;DHT22;3894;49.700;10.770;2023-09-12T05:57:54;16.40;99.90
7704;DHT22;3894;49.700;10.770;2023-09-12T06:00:20;16.40;99.90
7704;DHT22;3894;49.700;10.770;2023-09-12T06:02:47;16.50;99.90
7704;DHT22;3894;49.700;10.770;2023-09-12T06:05:13;16.60;99.90
7704;DHT22;3894;49.700;10.770;2023-09-12T06:07:40;16.60;99.90
7704;DHT22;3894;49.700;10.770;2023-09-12T06:10:07;16.70;99.90
7704;DHT22;3894;49.700;10.770;2023-09-12T06:12:33;16.80;99.90
7704;DHT22;3894;49.700;10.770;2023-09-12T06:14:59;17.00;99.90
7704;DHT22;3894;49.700;10.770;2023-09-12T06:17:25;17.10;99.90
7704;DHT22;3894;49.700;10.770;2023-09-12T06:19:50;17.30;99.90
7704;DHT22;3894;49.700;10.770;2023-09-12T06:22:17;17.50;99.90
7704;DHT22;3894;49.700;10.770;2023-09-12T06:24:43;17.60;99.90
7704;DHT22;3894;49.700;10.770;2023-09-12T06:27:09;17.80;99.90
7704;DHT22;3894;49.700;10.770;2023-09-12T06:29:35;18.00;99.90
7704;DHT22;3894;49.700;10.770;2023-09-12T06:32:00;18.10;99.90
7704;DHT22;3894;49.700;10.770;2023-09-12T06:34:27;18.30;99.90
7704;DHT22;3894;49.700;10.770;2023-09-12T06:36:53;18.50;99.90
7704;DHT22;3894;49.700;10.770;2023-09-12T06:39:18;18.60;99.90
7704;DHT22;3894;49.700;10.770;2023-09-12T06:41:44;18.40;99.90
7704;DHT22;3894;49.700;10.770;2023-09-12T06:44:11;18.40;99.90
7704;DHT22;3894;49.700;10.770;2023-09-12T06:46:37;18.60;99.90
7704;DHT22;3894;49.700;10.770;2023-09-12T06:49:03;18.90;99.90
7704;DHT22;3894;49.700;10.770;2023-09-12T06:51:29;19.00;99.90
7704;DHT22;3894;49.700;10.770;2023-09-12T06:53:54;19.20;99.90
7704;DHT22;3894;49.700;10.770;2023-09-12T06:56:20;19.40;99.90
7704;DHT22;3894;49.700;10.770;2023-09-12T06:58:47;19.60;99.90
7704;DHT22;3894;49.700;10.770;2023-09-12T07:01:13;19.70;99.90
7704;DHT22;3894;49.700;10.770;2023-09-12T07:03:38;19.80;99.90
7704;DHT22;3894;49.700;10.770;2023-09-12T07:06:04;20.00;99.90
7704;DHT22;3894;49.700;10.770;2023-09-12T07:08:31;20.10;99.90
7704;DHT22;3894;49.700;10.770;2023-09-12T07:10:56;20.20;99.90
7704;DHT22;3894;49.700;10.770;2023-09-12T07:13:23;20.30;99.90
7704;DHT22;3894;49.700;10.770;2023-09-12T07:15:50;20.30;99.90
7704;DHT22;3894;49.700;10.770;2023-09-12T07:18:16;20.40;99.90
7704;DHT22;3894;49.700;10.770;2023-09-12T07:20:41;20.60;99.90
7704;DHT22;3894;49.700;10.770;2023-09-12T07:23:07;20.70;99.90
7704;DHT22;3894;49.700;10.770;2023-09-12T07:25:40;20.80;99.90
7704;DHT22;3894;49.700;10.770;2023-09-12T07:28:07;20.90;99.90
7704;DHT22;3894;49.700;10.770;2023-09-12T07:30:32;21.00;99.90
7704;DHT22;3894;49.700;10.770;2023-09-12T07:32:58;21.20;99.90
7704;DHT22;3894;49.700;10.770;2023-09-12T07:35:24;21.20;99.90
7704;DHT22;3894;49.700;10.770;2023-09-12T07:37:50;21.30;99.90
7704;DHT22;3894;49.700;10.770;2023-09-12T07:40:15;21.30;99.90
7704;DHT22;3894;49.700;10.770;2023-09-12T07:42:41;21.50;99.90
7704;DHT22;3894;49.700;10.770;2023-09-12T07:45:07;21.60;99.90
7704;DHT22;3894;49.700;10.770;2023-09-12T07:47:33;21.70;99.90
7704;DHT22;3894;49.700;10.770;2023-09-12T07:49:59;21.90;99.90
7704;DHT22;3894;49.700;10.770;2023-09-12T07:52:30;22.00;99.90
7704;DHT22;3894;49.700;10.770;2023-09-12T07:55:00;22.00;99.90
7704;DHT22;3894;49.700;10.770;2023-09-12T07:57:25;21.90;99.90
7704;DHT22;3894;49.700;10.770;2023-09-12T07:59:51;21.90;99.90
7704;DHT22;3894;49.700;10.770;2023-09-12T08:02:16;22.00;99.90
7704;DHT22;3894;49.700;10.770;2023-09-12T08:04:42;22.20;99.90
7704;DHT22;3894;49.700;10.770;2023-09-12T08:07:07;22.40;99.90
7704;DHT22;3894;49.700;10.770;2023-09-12T08:09:54;22.40;99.90
7704;DHT22;3894;49.700;10.770;2023-09-12T08:12:22;22.60;99.90
7704;DHT22;3894;49.700;10.770;2023-09-12T08:14:48;22.80;99.90
7704;DHT22;3894;49.700;10.770;2023-09-12T08:17:14;23.00;99.90
7704;DHT22;3894;49.700;10.770;2023-09-12T08:19:40;23.10;99.90
7704;DHT22;3894;49.700;10.770;2023-09-12T08:22:06;23.10;99.90
7704;DHT22;3894;49.700;10.770;2023-09-12T08:24:33;23.10;99.90
7704;DHT22;3894;49.700;10.770;2023-09-12T08:26:59;23.20;99.90
7704;DHT22;3894;49.700;10.770;2023-09-12T08:29:25;23.30;99.90
7704;DHT22;3894;49.700;10.770;2023-09-12T08:31:51;23.40;99.90
7704;DHT22;3894;49.700;10.770;2023-09-12T08:34:18;23.40;99.90
7704;DHT22;3894;49.700;10.770;2023-09-12T08:36:45;23.50;99.90
7704;DHT22;3894;49.700;10.770;2023-09-12T08:39:14;23.70;99.90
7704;DHT22;3894;49.700;10.770;2023-09-12T08:41:40;23.90;99.90
7704;DHT22;3894;49.700;10.770;2023-09-12T08:44:05;24.10;99.90
7704;DHT22;3894;49.700;10.770;2023-09-12T08:46:32;24.20;99.90
7704;DHT22;3894;49.700;10.770;2023-09-12T08:48:58;24.30;99.90
7704;DHT22;3894;49.700;10.770;2023-09-12T08:51:24;24.40;99.90
7704;DHT22;3894;49.700;10.770;2023-09-12T08:53:50;24.40;99.90
7704;DHT22;3894;49.700;10.770;2023-09-12T08:56:17;24.40;99.90
7704;DHT22;3894;49.700;10.770;2023-09-12T08:58:43;24.60;99.90
7704;DHT22;3894;49.700;10.770;2023-09-12T09:01:13;24.60;99.90
7704;DHT22;3894;49.700;10.770;2023-09-12T09:03:42;24.60;99.90
7704;DHT22;3894;49.700;10.770;2023-09-12T09:06:12;24.80;99.90
7704;DHT22;3894;49.700;10.770;2023-09-12T09:08:39;24.90;99.90
7704;DHT22;3894;49.700;10.770;2023-09-12T09:11:05;25.10;99.90
7704;DHT22;3894;49.700;10.770;2023-09-12T09:13:34;25.30;99.90
7704;DHT22;3894;49.700;10.770;2023-09-12T09:16:17;25.30;99.90
7704;DHT22;3894;49.700;10.770;2023-09-12T09:19:01;25.50;99.90
7704;DHT22;3894;49.700;10.770;2023-09-12T09:21:31;25.60;99.90
7704;DHT22;3894;49.700;10.770;2023-09-12T09:24:17;25.60;99.90
7704;DHT22;3894;49.700;10.770;2023-09-12T09:26:48;25.60;99.90
7704;DHT22;3894;49.700;10.770;2023-09-12T09:29:16;25.70;99.90
7704;DHT22;3894;49.700;10.770;2023-09-12T09:31:43;25.70;99.90
7704;DHT22;3894;49.700;10.770;2023-09-12T09:34:20;25.80;99.90
7704;DHT22;3894;49.700;10.770;2023-09-12T09:36:51;25.90;99.90
7704;DHT22;3894;49.700;10.770;2023-09-12T09:39:22;26.10;99.90
7704;DHT22;3894;49.700;10.770;2023-09-12T09:41:49;26.20;99.90
7704;DHT22;3894;49.700;10.770;2023-09-12T09:44:16;26.30;99.90
7704;DHT22;3894;49.700;10.770;2023-09-12T09:46:43;26.30;99.90
7704;DHT22;3894;49.700;10.770;2023-09-12T09:49:16;26.30;99.90
7704;DHT22;3894;49.700;10.770;2023-09-12T09:51:44;26.20;99.90
7704;DHT22;3894;49.700;10.770;2023-09-12T09:54:13;26.20;99.90
7704;DHT22;3894;49.700;10.770;2023-09-12T09:56:49;26.40;99.90
7704;DHT22;3894;49.700;10.770;2023-09-12T09:59:16;26.50;99.90
7704;DHT22;3894;49.700;10.770;2023-09-12T10:01:44;26.40;99.90
7704;DHT22;3894;49.700;10.770;2023-09-12T10:04:10;26.50;99.90
7704;DHT22;3894;49.700;10.770;2023-09-12T10:06:37;26.70;99.90
7704;DHT22;3894;49.700;10.770;2023-09-12T10:09:06;26.70;99.90
7704;DHT22;3894;49.700;10.770;2023-09-12T10:11:33;26.70;99.90
7704;DHT22;3894;49.700;10.770;2023-09-12T10:14:01;26.90;99.90
7704;DHT22;3894;49.700;10.770;2023-09-12T10:16:48;27.00;99.90
7704;DHT22;3894;49.700;10.770;2023-09-12T10:19:24;27.10;99.90
7704;DHT22;3894;49.700;10.770;2023-09-12T10:21:55;26.90;99.90
7704;DHT22;3894;49.700;10.770;2023-09-12T10:24:25;26.80;99.90
7704;DHT22;3894;49.700;10.770;2023-09-12T10:26:54;27.10;99.90
7704;DHT22;3894;49.700;10.770;2023-09-12T10:29:20;27.40;99.90
7704;DHT22;3894;49.700;10.770;2023-09-12T10:31:48;27.60;99.90
7704;DHT22;3894;49.700;10.770;2023-09-12T10:34:14;27.60;99.90
7704;DHT22;3894;49.700;10.770;2023-09-12T10:36:41;27.80;99.90
7704;DHT22;3894;49.700;10.770;2023-09-12T10:39:09;27.90;99.90
7704;DHT22;3894;49.700;10.770;2023-09-12T10:41:41;27.80;99.90
7704;DHT22;3894;49.700;10.770;2023-09-12T10:44:15;27.70;99.90
7704;DHT22;3894;49.700;10.770;2023-09-12T10:46:41;27.80;99.90
7704;DHT22;3894;49.700;10.770;2023-09-12T10:49:09;28.00;99.90
7704;DHT22;3894;49.700;10.770;2023-09-12T10:51:40;28.10;99.90
7704;DHT22;3894;49.700;10.770;2023-09-12T10:54:07;28.30;99.90
7704;DHT22;3894;49.700;10.770;2023-09-12T10:56:36;28.50;99.90
7704;DHT22;3894;49.700;10.770;2023-09-12T11:01:32;28.70;99.90
7704;DHT22;3894;49.700;10.770;2023-09-12T11:03:58;28.70;99.90
7704;DHT22;3894;49.700;10.770;2023-09-12T11:06:30;28.40;99.90
7704;DHT22;3894;49.700;10.770;2023-09-12T11:11:43;27.90;99.90
7704;DHT22;3894;49.700;10.770;2023-09-12T11:14:10;27.90;99.90
7704;DHT22;3894;49.700;10.770;2023-09-12T11:16:36;28.20;99.90
7704;DHT22;3894;49.700;10.770;2023-09-12T11:19:19;28.40;99.90
7704;DHT22;3894;49.700;10.770;2023-09-12T11:21:48;28.70;99.90
7704;DHT22;3894;49.700;10.770;2023-09-12T11:24:15;29.00;99.90
7704;DHT22;3894;49.700;10.770;2023-09-12T11:27:03;29.30;99.90
7704;DHT22;3894;49.700;10.770;2023-09-12T11:29:38;29.30;99.90
7704;DHT22;3894;49.700;10.770;2023-09-12T11:32:05;29.20;99.90
7704;DHT22;3894;49.700;10.770;2023-09-12T11:34:38;29.20;99.90
7704;DHT22;3894;49.700;10.770;2023-09-12T11:37:05;29.30;99.90
7704;DHT22;3894;49.700;10.770;2023-09-12T11:39:32;29.50;99.90
7704;DHT22;3894;49.700;10.770;2023-09-12T11:41:59;29.70;99.90
7704;DHT22;3894;49.700;10.770;2023-09-12T11:44:25;29.90;99.90
7704;DHT22;3894;49.700;10.770;2023-09-12T11:46:53;30.10;99.90
7704;DHT22;3894;49.700;10.770;2023-09-12T11:49:19;30.20;99.90
7704;DHT22;3894;49.700;10.770;2023-09-12T11:51:52;30.10;99.90
7704;DHT22;3894;49.700;10.770;2023-09-12T11:54:28;29.90;99.90
7704;DHT22;3894;49.700;10.770;2023-09-12T11:56:54;29.60;99.90
7704;DHT22;3894;49.700;10.770;2023-09-12T11:59:29;29.70;99.90
7704;DHT22;3894;49.700;10.770;2023-09-12T12:01:55;29.90;99.90
7704;DHT22;3894;49.700;10.770;2023-09-12T12:04:22;30.00;99.90
7704;DHT22;3894;49.700;10.770;2023-09-12T12:06:50;30.10;99.90
7704;DHT22;3894;49.700;10.770;2023-09-12T12:09:16;30.30;99.90
7704;DHT22;3894;49.700;10.770;2023-09-12T12:11:44;30.40;99.90
7704;DHT22;3894;49.700;10.770;2023-09-12T12:14:15;30.50;99.90
7704;DHT22;3894;49.700;10.770;2023-09-12T12:16:42;30.60;99.90
7704;DHT22;3894;49.700;10.770;2023-09-12T12:19:11;30.40;99.90
7704;DHT22;3894;49.700;10.770;2023-09-12T12:21:43;30.50;99.90
7704;DHT22;3894;49.700;10.770;2023-09-12T12:24:14;30.80;99.90
7704;DHT22;3894;49.700;10.770;2023-09-12T12:26:45;31.00;99.90
7704;DHT22;3894;49.700;10.770;2023-09-12T12:29:11;31.10;99.90
7704;DHT22;3894;49.700;10.770;2023-09-12T12:31:38;31.20;99.70
7704;DHT22;3894;49.700;10.770;2023-09-12T12:34:05;31.20;99.30
7704;DHT22;3894;49.700;10.770;2023-09-12T12:36:31;31.20;99.70
7704;DHT22;3894;49.700;10.770;2023-09-12T12:39:00;31.20;99.20
7704;DHT22;3894;49.700;10.770;2023-09-12T12:41:29;31.20;99.20
7704;DHT22;3894;49.700;10.770;2023-09-12T12:44:01;31.20;99.60
7704;DHT22;3894;49.700;10.770;2023-09-12T12:46:28;31.20;98.10
7704;DHT22;3894;49.700;10.770;2023-09-12T12:48:54;30.80;97.40
7704;DHT22;3894;49.700;10.770;2023-09-12T12:51:24;30.40;98.10
7704;DHT22;3894;49.700;10.770;2023-09-12T12:53:53;30.20;98.60
7704;DHT22;3894;49.700;10.770;2023-09-12T12:56:23;30.20;99.50
7704;DHT22;3894;49.700;10.770;2023-09-12T12:58:50;30.30;99.30
7704;DHT22;3894;49.700;10.770;2023-09-12T13:01:16;30.60;99.20
7704;DHT22;3894;49.700;10.770;2023-09-12T13:03:42;30.90;99.00
7704;DHT22;3894;49.700;10.770;2023-09-12T13:06:08;30.90;98.70
7704;DHT22;3894;49.700;10.770;2023-09-12T13:08:39;30.90;98.10
7704;DHT22;3894;49.700;10.770;2023-09-12T13:11:06;31.00;98.50
7704;DHT22;3894;49.700;10.770;2023-09-12T13:13:32;31.10;99.10
7704;DHT22;3894;49.700;10.770;2023-09-12T13:15:58;31.00;98.30
7704;DHT22;3894;49.700;10.770;2023-09-12T13:18:24;31.00;98.20
7704;DHT22;3894;49.700;10.770;2023-09-12T13:20:50;31.00;98.10
7704;DHT22;3894;49.700;10.770;2023-09-12T13:23:16;31.00;97.70
7704;DHT22;3894;49.700;10.770;2023-09-12T13:25:41;30.90;97.40
7704;DHT22;3894;49.700;10.770;2023-09-12T13:28:07;30.70;97.10
7704;DHT22;3894;49.700;10.770;2023-09-12T13:30:33;30.60;96.90
7704;DHT22;3894;49.700;10.770;2023-09-12T13:32:59;30.50;98.30
7704;DHT22;3894;49.700;10.770;2023-09-12T13:35:24;30.60;98.40
7704;DHT22;3894;49.700;10.770;2023-09-12T13:37:50;30.50;97.20
7704;DHT22;3894;49.700;10.770;2023-09-12T13:40:15;30.40;98.30
7704;DHT22;3894;49.700;10.770;2023-09-12T13:42:41;30.40;98.50
7704;DHT22;3894;49.700;10.770;2023-09-12T13:45:07;30.40;98.60
7704;DHT22;3894;49.700;10.770;2023-09-12T13:47:33;30.30;98.30
7704;DHT22;3894;49.700;10.770;2023-09-12T13:49:58;30.30;98.60
7704;DHT22;3894;49.700;10.770;2023-09-12T13:52:26;30.40;98.30
7704;DHT22;3894;49.700;10.770;2023-09-12T13:54:55;30.30;97.60
7704;DHT22;3894;49.700;10.770;2023-09-12T13:57:21;30.20;98.10
7704;DHT22;3894;49.700;10.770;2023-09-12T13:59:47;30.30;98.30
7704;DHT22;3894;49.700;10.770;2023-09-12T14:02:13;30.10;97.70
7704;DHT22;3894;49.700;10.770;2023-09-12T14:04:38;30.10;97.40
7704;DHT22;3894;49.700;10.770;2023-09-12T14:07:05;29.90;96.80
7704;DHT22;3894;49.700;10.770;2023-09-12T14:09:31;29.70;97.50
7704;DHT22;3894;49.700;10.770;2023-09-12T14:11:56;29.70;97.50
7704;DHT22;3894;49.700;10.770;2023-09-12T14:14:22;29.70;97.40
7704;DHT22;3894;49.700;10.770;2023-09-12T14:16:47;29.70;97.30
7704;DHT22;3894;49.700;10.770;2023-09-12T14:19:13;29.70;97.70
7704;DHT22;3894;49.700;10.770;2023-09-12T14:21:38;29.80;98.10
7704;DHT22;3894;49.700;10.770;2023-09-12T14:24:05;29.90;98.00
7704;DHT22;3894;49.700;10.770;2023-09-12T14:26:31;29.80;97.60
7704;DHT22;3894;49.700;10.770;2023-09-12T14:28:56;29.90;98.00
7704;DHT22;3894;49.700;10.770;2023-09-12T14:31:22;29.80;97.40
7704;DHT22;3894;49.700;10.770;2023-09-12T14:33:51;29.80;97.80
7704;DHT22;3894;49.700;10.770;2023-09-12T14:36:18;29.80;98.10
7704;DHT22;3894;49.700;10.770;2023-09-12T14:38:44;29.80;98.10
7704;DHT22;3894;49.700;10.770;2023-09-12T14:41:12;29.80;97.20
7704;DHT22;3894;49.700;10.770;2023-09-12T14:43:38;29.70;97.50
7704;DHT22;3894;49.700;10.770;2023-09-12T14:46:03;29.70;97.70
7704;DHT22;3894;49.700;10.770;2023-09-12T14:48:31;29.70;97.80
7704;DHT22;3894;49.700;10.770;2023-09-12T14:50:59;29.70;97.50
7704;DHT22;3894;49.700;10.770;2023-09-12T14:53:26;29.70;98.40
7704;DHT22;3894;49.700;10.770;2023-09-12T14:55:53;29.70;98.20
7704;DHT22;3894;49.700;10.770;2023-09-12T14:58:18;29.60;98.10
7704;DHT22;3894;49.700;10.770;2023-09-12T15:00:44;29.60;97.90
7704;DHT22;3894;49.700;10.770;2023-09-12T15:03:10;29.50;97.90
7704;DHT22;3894;49.700;10.770;2023-09-12T15:05:35;29.50;97.80
7704;DHT22;3894;49.700;10.770;2023-09-12T15:08:01;29.50;97.70
7704;DHT22;3894;49.700;10.770;2023-09-12T15:10:27;29.50;97.60
7704;DHT22;3894;49.700;10.770;2023-09-12T15:12:52;29.40;97.60
7704;DHT22;3894;49.700;10.770;2023-09-12T15:15:19;29.40;97.50
7704;DHT22;3894;49.700;10.770;2023-09-12T15:17:44;29.40;98.00
7704;DHT22;3894;49.700;10.770;2023-09-12T15:20:10;29.40;97.80
7704;DHT22;3894;49.700;10.770;2023-09-12T15:22:36;29.40;97.30
7704;DHT22;3894;49.700;10.770;2023-09-12T15:25:02;29.30;97.00
7704;DHT22;3894;49.700;10.770;2023-09-12T15:27:28;29.30;97.10
7704;DHT22;3894;49.700;10.770;2023-09-12T15:29:54;29.20;97.20
7704;DHT22;3894;49.700;10.770;2023-09-12T15:32:20;29.20;97.50
7704;DHT22;3894;49.700;10.770;2023-09-12T15:34:46;29.10;97.10
7704;DHT22;3894;49.700;10.770;2023-09-12T15:37:13;29.10;97.10
7704;DHT22;3894;49.700;10.770;2023-09-12T15:39:39;29.20;97.00
7704;DHT22;3894;49.700;10.770;2023-09-12T15:42:05;29.20;96.80
7704;DHT22;3894;49.700;10.770;2023-09-12T15:44:31;29.20;97.20
7704;DHT22;3894;49.700;10.770;2023-09-12T15:46:56;29.30;97.70
7704;DHT22;3894;49.700;10.770;2023-09-12T15:49:23;29.30;97.90
7704;DHT22;3894;49.700;10.770;2023-09-12T15:51:49;29.20;98.10
7704;DHT22;3894;49.700;10.770;2023-09-12T15:54:14;29.20;98.30